Time;durP1;ratioP1;P1;durP2;ratioP2;P2;SDS_P1;SDS_P2;PMS_P1;PMS_P2;Temp;Humidity;BMP_temperature;BMP_pressure;BME280_temperature;BME280_humidity;BME280_pressure;Samples;Min_cycle;Max_cycle;Signal;HPM_P1;HPM_P2
2022/04/07 00:02:18;;;;;;;0.50;0.50;;;;;;;-145.69;100.00;71004.44;5073161;28;20265;-76
2022/04/07 00:04:46;;;;;;;1.53;0.80;;;;;;;-145.69;100.00;71000.47;5072974;28;20681;-76
2022/04/07 00:07:13;;;;;;;0.73;0.70;;;;;;;-145.69;100.00;71000.47;5072976;28;20202;-75
2022/04/07 00:09:39;;;;;;;0.50;0.50;;;;;;;-145.69;100.00;70992.50;5072117;28;20948;-76
2022/04/07 00:12:06;;;;;;;0.70;0.60;;;;;;;-145.69;100.00;70998.47;5071128;28;20209;-75
2022/04/07 00:14:33;;;;;;;0.60;0.60;;;;;;;-145.69;100.00;70996.47;5053988;28;20223;-76
2022/04/07 00:16:59;;;;;;;0.50;0.50;;;;;;;-145.69;100.00;70986.53;5051763;28;20231;-76
2022/04/07 00:19:26;;;;;;;0.60;0.60;;;;;;;-145.69;100.00;70966.63;5052771;28;20699;-76
2022/04/07 00:21:56;;;;;;;0.70;0.70;;;;;;;-145.69;100.00;70978.56;5066036;28;20199;-76
2022/04/07 00:24:22;;;;;;;1.20;0.67;;;;;;;-145.69;100.00;70978.56;5073039;28;20209;-76
2022/04/07 00:26:49;;;;;;;0.73;0.70;;;;;;;-145.69;100.00;70968.63;5073116;28;20206;-76
2022/04/07 00:29:15;;;;;;;1.03;0.80;;;;;;;-145.69;100.00;70974.59;5072671;28;20206;-76
2022/04/07 00:31:42;;;;;;;0.70;0.70;;;;;;;-145.69;100.00;70972.59;5072881;28;20260;-76
2022/04/07 00:34:08;;;;;;;1.50;0.97;;;;;;;-145.69;100.00;70972.59;5072754;28;20597;-76
2022/04/07 00:36:35;;;;;;;1.00;0.80;;;;;;;-145.69;100.00;70980.56;5072850;28;20206;-76
2022/04/07 00:39:03;;;;;;;1.40;0.93;;;;;;;-145.69;100.00;70982.56;5072873;28;20233;-76
2022/04/07 00:41:29;;;;;;;0.90;0.90;;;;;;;-145.69;100.00;70976.59;5072774;28;20297;-76
2022/04/07 00:43:56;;;;;;;1.10;0.90;;;;;;;-145.69;100.00;70976.59;5073003;28;20206;-76
2022/04/07 00:46:22;;;;;;;1.50;0.70;;;;;;;-145.69;100.00;70972.59;5072814;28;20222;-76
2022/04/07 00:48:49;;;;;;;1.87;0.80;;;;;;;-145.69;100.00;70974.59;5072463;28;20241;-77
2022/04/07 00:51:16;;;;;;;1.50;0.80;;;;;;;-145.69;100.00;70972.59;5072269;28;20202;-76
2022/04/07 00:53:44;;;;;;;3.50;0.80;;;;;;;-145.69;100.00;70984.53;5072931;28;20206;-76
2022/04/07 00:56:12;;;;;;;2.33;0.80;;;;;;;-145.69;100.00;70988.53;5072770;28;20273;-76
2022/04/07 00:58:39;;;;;;;0.80;0.70;;;;;;;-145.69;100.00;70984.53;5072776;28;20227;-76
2022/04/07 01:01:06;;;;;;;0.93;0.70;;;;;;;-145.69;100.00;70986.53;5072649;28;20206;-76
2022/04/07 01:03:32;;;;;;;1.90;0.60;;;;;;;-145.69;100.00;70984.53;5072362;28;20249;-76
2022/04/07 01:06:00;;;;;;;0.70;0.70;;;;;;;-145.69;100.00;70980.56;5072748;28;20608;-76
2022/04/07 01:08:26;;;;;;;1.43;0.93;;;;;;;-145.69;100.00;70992.50;5072686;28;20290;-78
2022/04/07 01:10:53;;;;;;;6.00;0.90;;;;;;;-145.69;100.00;70996.47;5068520;28;20527;-77
2022/04/07 01:13:21;;;;;;;1.57;0.90;;;;;;;-145.69;100.00;71010.41;5071311;28;20717;-77
2022/04/07 01:15:47;;;;;;;0.83;0.70;;;;;;;-145.69;100.00;71008.41;5072613;28;20203;-77
2022/04/07 01:18:14;;;;;;;1.23;0.80;;;;;;;-145.69;100.00;71006.44;5071773;28;20299;-77
2022/04/07 01:20:41;;;;;;;0.97;0.70;;;;;;;-145.69;100.00;71012.41;5072534;28;20199;-78
2022/04/07 01:23:08;;;;;;;0.83;0.80;;;;;;;-145.69;100.00;71002.44;5074535;28;20247;-76
2022/04/07 01:25:38;;;;;;;0.50;0.50;;;;;;;-145.69;100.00;71012.41;5076167;28;20281;-76
2022/04/07 01:28:05;;;;;;;1.97;0.70;;;;;;;-145.69;100.00;71008.41;5075773;28;20290;-76
2022/04/07 01:30:31;;;;;;;1.23;0.63;;;;;;;-145.69;100.00;71012.41;5075781;28;20198;-79
2022/04/07 01:33:00;;;;;;;0.50;0.50;;;;;;;-145.69;100.00;71012.41;5075815;28;20207;-76
2022/04/07 01:35:27;;;;;;;0.87;0.70;;;;;;;-145.69;100.00;71014.38;5075999;28;20195;-76
2022/04/07 01:37:57;;;;;;;0.80;0.60;;;;;;;-145.69;100.00;71018.38;5075785;28;20631;-76
2022/04/07 01:40:27;;;;;;;0.67;0.67;;;;;;;-145.69;100.00;71022.34;5075773;28;20202;-76
2022/04/07 01:42:55;;;;;;;1.33;0.73;;;;;;;-145.69;100.00;71024.34;5075897;28;20222;-77
2022/04/07 01:45:23;;;;;;;0.60;0.60;;;;;;;-145.69;100.00;71032.28;5075556;28;20248;-75
2022/04/07 01:47:52;;;;;;;1.03;0.77;;;;;;;-145.69;100.00;71038.25;5075353;28;20546;-76
2022/04/07 01:50:21;;;;;;;1.03;0.73;;;;;;;-145.69;100.00;71040.25;5075026;28;20203;-78
2022/04/07 01:52:47;;;;;;;3.60;0.90;;;;;;;-145.69;100.00;71036.28;5075104;28;20290;-77
2022/04/07 01:55:16;;;;;;;1.00;0.70;;;;;;;-145.69;100.00;71052.19;5075219;28;20194;-78
2022/04/07 01:57:48;;;;;;;1.27;0.60;;;;;;;-145.69;100.00;71056.16;5075102;28;20356;-77
2022/04/07 02:00:17;;;;;;;1.33;0.80;;;;;;;-145.69;100.00;71054.19;5075341;28;20301;-76
2022/04/07 02:02:49;;;;;;;0.93;0.70;;;;;;;-145.69;100.00;71052.19;5075278;28;20199;-76
2022/04/07 02:05:16;;;;;;;0.70;0.70;;;;;;;-145.69;100.00;71050.22;5075272;28;20272;-75
2022/04/07 02:07:44;;;;;;;1.00;0.70;;;;;;;-145.69;100.00;71052.19;5075169;28;20209;-77
2022/04/07 02:10:15;;;;;;;1.90;0.80;;;;;;;-145.69;100.00;71052.19;5074867;28;20222;-76
2022/04/07 02:12:43;;;;;;;1.37;0.90;;;;;;;-145.69;100.00;71052.19;5075126;28;20195;-76
2022/04/07 02:15:10;;;;;;;1.60;0.90;;;;;;;-145.69;100.00;71050.22;5074565;28;20617;-77
2022/04/07 02:17:43;;;;;;;2.40;0.80;;;;;;;-145.69;100.00;71060.16;5074919;28;20219;-76
2022/04/07 02:20:13;;;;;;;0.90;0.77;;;;;;;-145.69;100.00;71058.16;5070870;28;20222;-77
2022/04/07 02:22:50;;;;;;;3.53;1.03;;;;;;;-145.69;100.00;71052.19;5054786;28;20202;-76
2022/04/07 02:25:22;;;;;;;1.40;0.80;;;;;;;-145.69;100.00;71054.19;5054721;28;20214;-76
2022/04/07 02:27:50;;;;;;;4.90;1.20;;;;;;;-145.69;100.00;71056.16;5054737;28;20253;-76
2022/04/07 02:30:19;;;;;;;3.10;0.90;;;;;;;-145.69;100.00;71050.22;5054515;28;20662;-76
2022/04/07 02:32:55;;;;;;;2.00;0.67;;;;;;;-145.69;100.00;71050.22;5054648;28;20208;-77
2022/04/07 02:35:28;;;;;;;2.80;1.00;;;;;;;-145.69;100.00;71052.19;5053094;28;20206;-75
2022/04/07 02:37:54;;;;;;;1.20;0.77;;;;;;;-145.69;100.00;71036.28;5054266;28;20227;-75
2022/04/07 02:40:21;;;;;;;0.87;0.83;;;;;;;-145.69;100.00;71040.25;5064374;28;20222;-76
2022/04/07 02:42:52;;;;;;;0.97;0.80;;;;;;;-145.69;100.00;71038.25;5074560;28;20198;-76
2022/04/07 02:45:18;;;;;;;1.10;1.00;;;;;;;-145.69;100.00;71032.28;5074209;28;20437;-76
2022/04/07 02:47:48;;;;;;;1.10;1.00;;;;;;;-145.69;100.00;71032.28;5074306;28;20203;-76
2022/04/07 02:50:20;;;;;;;1.63;0.90;;;;;;;-145.69;100.00;71034.28;5074513;28;20203;-76
2022/04/07 02:52:46;;;;;;;1.07;0.97;;;;;;;-145.69;100.00;71028.31;5074443;28;20203;-76
2022/04/07 02:55:13;;;;;;;2.30;0.90;;;;;;;-145.69;100.00;71030.31;5074311;28;20203;-76
2022/04/07 02:57:45;;;;;;;1.50;1.00;;;;;;;-145.69;100.00;71024.34;5074179;28;20209;-75
2022/04/07 03:00:13;;;;;;;3.50;1.00;;;;;;;-145.69;100.00;71010.41;5074016;28;20203;-77
2022/04/07 03:02:51;;;;;;;1.37;0.90;;;;;;;-145.69;100.00;71004.44;5074042;28;20669;-76
2022/04/07 03:05:19;;;;;;;2.50;0.90;;;;;;;-145.69;100.00;70998.47;5074104;28;20207;-76
2022/04/07 03:07:46;;;;;;;1.00;0.90;;;;;;;-145.69;100.00;71006.44;5074055;28;20203;-76
2022/04/07 03:10:12;;;;;;;3.27;1.10;;;;;;;-145.69;100.00;70998.47;5073415;28;20195;-75
2022/04/07 03:12:44;;;;;;;1.10;0.70;;;;;;;-145.69;100.00;71004.44;5073755;28;20207;-76
2022/04/07 03:15:10;;;;;;;1.43;1.00;;;;;;;-145.69;100.00;71000.47;5073540;28;20234;-76
2022/04/07 03:17:40;;;;;;;2.53;0.90;;;;;;;-145.69;100.00;71000.47;5073848;28;20206;-76
2022/04/07 03:20:08;;;;;;;1.60;1.30;;;;;;;-145.69;100.00;70990.50;5073761;28;20207;-76
2022/04/07 03:22:41;;;;;;;1.63;1.20;;;;;;;-145.69;100.00;70980.56;5073697;28;20210;-76
2022/04/07 03:25:08;;;;;;;1.87;1.17;;;;;;;-145.69;100.00;70974.59;5073598;28;20289;-76
2022/04/07 03:27:39;;;;;;;3.33;0.90;;;;;;;-145.69;100.00;70978.56;5073740;28;20211;-76
2022/04/07 03:30:09;;;;;;;1.33;1.07;;;;;;;-145.69;100.00;70976.59;5073654;28;20230;-76
2022/04/07 03:32:37;;;;;;;0.90;0.73;;;;;;;-145.69;100.00;70970.63;5073637;28;20194;-77
2022/04/07 03:35:04;;;;;;;0.73;0.73;;;;;;;-145.69;100.00;70974.59;5073448;28;20226;-76
2022/04/07 03:37:36;;;;;;;3.00;0.80;;;;;;;-145.69;100.00;70982.56;5073386;28;20205;-75
2022/04/07 03:40:05;;;;;;;1.20;1.00;;;;;;;-145.69;100.00;70980.56;5072954;28;20231;-75
2022/04/07 03:42:34;;;;;;;1.83;0.80;;;;;;;-145.69;100.00;70974.59;5073526;28;20212;-76
2022/04/07 03:45:00;;;;;;;1.63;0.80;;;;;;;-145.69;100.00;70988.53;5072873;28;20202;-75
2022/04/07 03:47:27;;;;;;;1.00;0.83;;;;;;;-145.69;100.00;70976.59;5073117;28;20203;-75
2022/04/07 03:49:55;;;;;;;0.97;0.90;;;;;;;-145.69;100.00;70994.50;5073135;28;20203;-76
2022/04/07 03:52:24;;;;;;;2.77;0.80;;;;;;;-145.69;100.00;70996.47;5072119;28;20198;-75
2022/04/07 03:54:52;;;;;;;0.83;0.77;;;;;;;-145.69;100.00;70998.47;5072243;28;20653;-77
2022/04/07 03:57:21;;;;;;;0.70;0.70;;;;;;;-145.69;100.00;70998.47;5072971;28;20249;-76
2022/04/07 03:59:48;;;;;;;0.70;0.60;;;;;;;-145.69;100.00;71006.44;5073009;28;20227;-75
2022/04/07 04:02:16;;;;;;;2.17;0.70;;;;;;;-145.69;100.00;71006.44;5073003;28;20252;-76
2022/04/07 04:04:44;;;;;;;1.90;1.03;;;;;;;-145.69;100.00;71014.38;5072966;28;20206;-76
2022/04/07 04:07:13;;;;;;;1.00;0.70;;;;;;;-145.69;100.00;70998.47;5072899;28;20199;-76
2022/04/07 04:09:39;;;;;;;0.87;0.80;;;;;;;-145.69;100.00;71000.47;5072713;28;20206;-76
2022/04/07 04:12:09;;;;;;;4.53;0.63;;;;;;;-145.69;100.00;70994.50;5073107;28;20210;-76
2022/04/07 04:14:35;;;;;;;0.83;0.63;;;;;;;-145.69;100.00;70974.59;5072948;28;20238;-76
2022/04/07 04:17:01;;;;;;;0.80;0.77;;;;;;;-145.69;100.00;70984.53;5055240;28;20589;-77
2022/04/07 04:19:29;;;;;;;0.90;0.77;;;;;;;-145.69;100.00;70996.47;5052638;28;20712;-76
2022/04/07 04:21:56;;;;;;;0.90;0.70;;;;;;;-145.69;100.00;71000.47;5052761;28;20203;-77
2022/04/07 04:24:24;;;;;;;0.60;0.60;;;;;;;-145.69;100.00;70992.50;5053078;28;20294;-77
2022/04/07 04:26:51;;;;;;;0.50;0.50;;;;;;;-145.69;100.00;70966.63;5052840;28;20195;-77
2022/04/07 04:29:21;;;;;;;0.50;0.50;;;;;;;-145.69;100.00;70956.69;5052837;28;20260;-76
2022/04/07 04:31:48;;;;;;;1.60;0.87;;;;;;;-145.69;100.00;70944.75;5052754;28;20658;-78
2022/04/07 04:34:15;;;;;;;0.87;0.60;;;;;;;-145.69;100.00;70928.84;5053118;28;20199;-76
2022/04/07 04:36:41;;;;;;;1.07;0.60;;;;;;;-145.69;100.00;70932.81;5052673;28;20200;-76
2022/04/07 04:39:08;;;;;;;0.60;0.60;;;;;;;-145.69;100.00;70928.84;5062940;28;20230;-76
2022/04/07 04:41:36;;;;;;;0.57;0.57;;;;;;;-145.69;100.00;70928.84;5072748;28;20195;-76
2022/04/07 04:44:03;;;;;;;0.60;0.60;;;;;;;-145.69;100.00;70928.84;5072862;28;20199;-77
2022/04/07 04:46:31;;;;;;;1.73;0.77;;;;;;;-145.69;100.00;70924.84;5072685;28;20621;-76
2022/04/07 04:48:59;;;;;;;0.60;0.60;;;;;;;-145.69;100.00;70924.84;5072824;28;20256;-76
2022/04/07 04:51:28;;;;;;;0.63;0.63;;;;;;;-145.69;100.00;70920.88;5072667;28;20202;-76
2022/04/07 04:53:55;;;;;;;0.73;0.73;;;;;;;-145.69;100.00;70918.88;5072544;28;20199;-75
2022/04/07 04:56:23;;;;;;;0.60;0.60;;;;;;;-145.69;100.00;70906.94;5073588;28;20290;-76
2022/04/07 04:58:49;;;;;;;0.60;0.60;;;;;;;-145.69;100.00;70902.97;5075908;28;20233;-76
2022/04/07 05:01:20;;;;;;;0.50;0.50;;;;;;;-145.69;100.00;70912.91;5074811;28;20209;-76
2022/04/07 05:03:50;;;;;;;0.67;0.40;;;;;;;-145.69;100.00;70889.03;5076294;28;20237;-76
2022/04/07 05:06:17;;;;;;;0.50;0.50;;;;;;;-145.69;100.00;70881.09;5076033;28;20661;-76
2022/04/07 05:08:46;;;;;;;1.07;0.57;;;;;;;-145.69;100.00;70879.09;5075987;28;20236;-75
2022/04/07 05:11:12;;;;;;;1.60;0.60;;;;;;;-145.69;100.00;70873.13;5076214;28;20203;-76
2022/04/07 05:13:39;;;;;;;0.73;0.50;;;;;;;-145.69;100.00;70879.09;5075742;28;20235;-76
2022/04/07 05:16:07;;;;;;;1.07;0.60;;;;;;;-145.69;100.00;70865.16;5076386;28;20211;-76
2022/04/07 05:18:34;;;;;;;0.53;0.53;;;;;;;-145.69;100.00;70881.09;5076253;28;20306;-76
2022/04/07 05:21:02;;;;;;;0.90;0.77;;;;;;;-145.69;100.00;70877.09;5076273;28;20203;-77
2022/04/07 05:23:30;;;;;;;0.70;0.60;;;;;;;-145.69;100.00;70881.09;5078214;28;20195;-76
2022/04/07 05:25:58;;;;;;;1.07;0.60;;;;;;;-145.69;100.00;70891.03;5076053;28;20241;-76
2022/04/07 05:28:24;;;;;;;0.60;0.60;;;;;;;-145.69;100.00;70885.06;5076117;28;20198;-76
2022/04/07 05:30:51;;;;;;;0.70;0.70;;;;;;;-145.69;100.00;70879.09;5075592;28;20731;-76
2022/04/07 05:33:17;;;;;;;0.60;0.60;;;;;;;-145.69;100.00;70867.16;5075246;28;20199;-76
2022/04/07 05:35:44;;;;;;;1.67;0.57;;;;;;;-145.69;100.00;70865.16;5075655;28;20225;-77
2022/04/07 05:38:11;;;;;;;0.83;0.80;;;;;;;-145.69;100.00;70849.25;5075237;28;20711;-76
2022/04/07 05:40:38;;;;;;;1.40;1.00;;;;;;;-145.69;100.00;70849.25;5075401;28;20716;-76
2022/04/07 05:43:05;;;;;;;1.10;0.97;;;;;;;-145.69;100.00;70843.28;5075636;28;20202;-76
2022/04/07 05:45:32;;;;;;;1.47;1.17;;;;;;;-145.69;100.00;70837.31;5075664;28;20206;-76
2022/04/07 05:47:58;;;;;;;1.50;1.00;;;;;;;-145.69;100.00;70839.31;5075587;28;20199;-76
2022/04/07 05:50:25;;;;;;;2.40;1.47;;;;;;;-145.69;100.00;70837.31;5075515;28;20226;-76
2022/04/07 05:52:51;;;;;;;2.37;1.00;;;;;;;-145.69;100.00;70833.34;5075248;28;20207;-75
2022/04/07 05:55:19;;;;;;;0.83;0.67;;;;;;;-145.69;100.00;70821.41;5075228;28;20198;-76
2022/04/07 05:57:46;;;;;;;3.27;1.07;;;;;;;-145.69;100.00;70805.47;5075609;28;20373;-75
2022/04/07 06:00:16;;;;;;;1.47;0.83;;;;;;;-145.69;100.00;70791.56;5075307;28;20237;-76
2022/04/07 06:02:43;;;;;;;2.08;0.88;;;;;;;-145.69;97.68;70757.72;5074274;28;20438;-76
2022/04/07 06:05:11;;;;;;;1.87;0.90;;;;;;;-145.69;96.78;70765.69;5075132;28;20206;-76
2022/04/07 06:07:38;;;;;;;2.93;1.20;;;;;;;-145.69;96.38;70757.72;5074180;28;20195;-77
2022/04/07 06:10:06;;;;;;;3.60;1.60;;;;;;;-145.69;95.37;70749.78;5071937;28;20199;-75
2022/04/07 06:12:34;;;;;;;1.60;0.80;;;;;;;-145.69;95.17;70741.81;5075049;28;20199;-77
2022/04/07 06:15:00;;;;;;;2.07;1.20;;;;;;;-145.69;95.72;70749.78;5073604;28;20245;-76
2022/04/07 06:17:34;;;;;;;3.33;1.30;;;;;;;-145.69;95.80;70741.81;5074547;28;20195;-76
2022/04/07 06:20:01;;;;;;;2.33;1.27;;;;;;;-145.69;95.87;70733.84;5075031;28;20245;-76
2022/04/07 06:22:27;;;;;;;2.03;1.00;;;;;;;-145.69;96.36;70731.88;5074945;28;20226;-77
2022/04/07 06:24:54;;;;;;;3.53;1.30;;;;;;;-145.69;96.36;70717.94;5075020;28;20198;-77
2022/04/07 06:27:20;;;;;;;1.43;0.90;;;;;;;-145.69;95.40;70711.97;5074739;28;20390;-78
2022/04/07 06:29:48;;;;;;;1.50;0.80;;;;;;;-145.69;96.12;70729.88;5074901;28;20209;-76
2022/04/07 06:32:14;;;;;;;2.17;1.30;;;;;;;-145.69;95.98;70725.91;5074799;28;20209;-76
2022/04/07 06:34:41;;;;;;;0.60;0.60;;;;;;;-145.69;96.32;70709.97;5074622;28;20260;-76
2022/04/07 06:37:07;;;;;;;1.43;0.60;;;;;;;-145.69;96.84;70706.00;5074973;28;20210;-76
2022/04/07 06:39:34;;;;;;;0.60;0.60;;;;;;;-145.69;97.39;70723.91;5074316;28;20689;-76
2022/04/07 06:42:00;;;;;;;2.67;1.10;;;;;;;-145.69;99.91;70711.97;5074659;28;20195;-77
2022/04/07 06:44:27;;;;;;;1.53;0.80;;;;;;;-145.69;96.60;70717.94;5074594;28;20252;-77
2022/04/07 06:46:55;;;;;;;3.03;0.90;;;;;;;-145.69;97.22;70706.00;5074375;28;20202;-77
2022/04/07 06:49:21;;;;;;;2.87;1.10;;;;;;;-145.69;97.24;70702.03;5074196;28;20198;-77
2022/04/07 06:51:48;;;;;;;2.10;0.70;;;;;;;-145.69;94.87;70694.06;5074319;28;20199;-76
2022/04/07 06:54:14;;;;;;;3.13;1.53;;;;;;;-145.69;97.27;70694.06;5074603;28;20195;-77
2022/04/07 06:56:41;;;;;;;5.73;1.60;;;;;;;-145.69;95.14;70682.13;5074388;28;20198;-78
2022/04/07 06:59:07;;;;;;;2.50;0.90;;;;;;;-145.69;95.05;70670.19;5074368;28;20420;-77
2022/04/07 07:01:39;;;;;;;3.80;1.40;;;;;;;-145.69;95.22;70678.16;5074078;28;20191;-77
2022/04/07 07:04:07;;;;;;;5.50;1.70;;;;;;;-145.69;92.08;70652.28;5074051;28;20198;-76
2022/04/07 07:06:33;;;;;;;3.80;1.50;;;;;;;-145.69;91.83;70642.34;5068552;28;20229;-76
2022/04/07 07:09:00;;;;;;;6.97;2.30;;;;;;;-145.69;91.40;70626.41;5072008;28;20198;-76
2022/04/07 07:11:26;;;;;;;3.30;0.93;;;;;;;-145.69;90.93;70624.44;5073758;28;20226;-76
2022/04/07 07:13:53;;;;;;;1.53;0.90;;;;;;;-145.69;89.82;70610.50;5073618;28;20226;-75
2022/04/07 07:16:19;;;;;;;4.97;1.30;;;;;;;-145.69;88.56;70592.59;5073890;28;20677;-76
2022/04/07 07:18:46;;;;;;;6.07;1.90;;;;;;;-145.69;90.04;70578.69;5073031;28;20723;-76
2022/04/07 07:21:14;;;;;;;1.17;0.73;;;;;;;-145.69;89.94;70580.66;5071881;28;20230;-76
2022/04/07 07:23:40;;;;;;;6.70;1.50;;;;;;;-145.69;89.41;70566.75;5073358;28;20574;-76
2022/04/07 07:26:08;;;;;;;6.73;1.23;;;;;;;-145.69;90.55;70568.72;5073685;28;20205;-76
2022/04/07 07:28:34;;;;;;;9.20;2.13;;;;;;;-145.69;88.65;70550.81;5073756;28;20195;-75
2022/04/07 07:31:01;;;;;;;9.23;1.73;;;;;;;-145.69;90.28;70544.84;5073410;28;20199;-75
2022/04/07 07:33:27;;;;;;;3.50;1.17;;;;;;;-145.69;88.40;70524.97;5073476;28;20199;-75
2022/04/07 07:35:54;;;;;;;7.83;1.70;;;;;;;-145.69;88.37;70526.94;5073679;28;20199;-76
2022/04/07 07:38:22;;;;;;;4.67;1.37;;;;;;;-145.69;89.00;70522.97;5073437;28;20657;-76
2022/04/07 07:40:49;;;;;;;9.10;1.93;;;;;;;-145.69;90.64;70542.88;5073364;28;20222;-76
2022/04/07 07:43:16;;;;;;;5.97;1.63;;;;;;;-145.69;88.31;70522.97;5073108;28;20202;-76
2022/04/07 07:45:42;;;;;;;6.13;1.97;;;;;;;-145.69;88.96;70501.09;5073356;28;20202;-76
2022/04/07 07:48:09;;;;;;;12.47;2.83;;;;;;;-145.69;88.90;70495.13;5073309;28;20199;-77
2022/04/07 07:50:38;;;;;;;5.40;1.60;;;;;;;-145.69;87.72;70515.00;5073235;28;20195;-77
2022/04/07 07:53:05;;;;;;;4.70;1.23;;;;;;;-145.69;88.99;70532.91;5073263;28;20214;-75
2022/04/07 07:55:35;;;;;;;8.57;1.97;;;;;;;-145.69;90.36;70546.84;5073099;28;20198;-77
2022/04/07 07:58:02;;;;;;;6.82;2.20;;;;;;;-145.69;91.93;70568.72;5072638;28;20980;-76
2022/04/07 08:00:28;;;;;;;6.40;1.73;;;;;;;-145.69;91.02;70554.81;5072829;28;20234;-76
2022/04/07 08:02:55;;;;;;;7.37;2.00;;;;;;;-145.69;92.13;70538.88;5072822;28;20203;-77
2022/04/07 08:05:21;;;;;;;4.17;1.40;;;;;;;-145.69;90.72;70532.91;5055385;28;20599;-76
2022/04/07 08:07:48;;;;;;;8.57;2.07;;;;;;;-145.69;91.79;70524.97;5053178;28;20245;-75
2022/04/07 08:10:14;;;;;;;9.60;2.30;;;;;;;-145.69;92.03;70499.09;5052923;28;20199;-76
2022/04/07 08:12:42;;;;;;;12.47;3.03;;;;;;;-145.69;89.48;70493.13;5052992;28;20199;-76
2022/04/07 08:15:10;;;;;;;4.87;1.33;;;;;;;-145.69;89.88;70479.19;5052628;28;20579;-76
2022/04/07 08:17:37;;;;;;;63.73;17.33;;;;;;;-145.69;89.32;70471.25;5052817;28;20610;-76
2022/04/07 08:20:07;;;;;;;7.33;2.07;;;;;;;-145.69;89.02;70465.28;5052840;28;20223;-75
2022/04/07 08:22:33;;;;;;;11.80;3.13;;;;;;;-145.69;86.72;70407.59;5052741;28;20238;-76
2022/04/07 08:25:00;;;;;;;4.23;1.63;;;;;;;-145.69;85.87;70441.41;5052976;28;20206;-76
2022/04/07 08:27:26;;;;;;;14.13;3.30;;;;;;;-145.69;87.70;70451.34;5052734;28;20210;-76
2022/04/07 08:29:54;;;;;;;8.37;2.40;;;;;;;-145.69;87.45;70453.34;5052644;28;20203;-75
2022/04/07 08:32:21;;;;;;;7.47;1.90;;;;;;;-145.69;88.15;70423.50;5074126;28;20654;-76
2022/04/07 08:34:47;;;;;;;7.67;3.03;;;;;;;-145.69;89.31;70425.50;5076931;28;20205;-79
2022/04/07 08:37:14;;;;;;;4.17;1.90;;;;;;;-145.69;95.61;70467.28;5076873;28;20248;-76
2022/04/07 08:39:40;;;;;;;1.30;0.70;;;;;;;-145.69;95.34;70483.19;5076761;28;20225;-76
2022/04/07 08:42:08;;;;;;;1.77;0.90;;;;;;;-145.69;98.05;70467.28;5076739;28;20195;-76
2022/04/07 08:44:34;;;;;;;2.07;0.70;;;;;;;-145.69;92.02;70425.50;5076931;28;20294;-76
2022/04/07 08:47:02;;;;;;;2.53;0.60;;;;;;;-145.69;90.24;70395.66;5076629;28;20680;-75
2022/04/07 08:49:31;;;;;;;1.33;0.50;;;;;;;-145.69;91.44;70393.66;5076692;28;20210;-75
2022/04/07 08:51:58;;;;;;;3.00;0.90;;;;;;;-145.69;88.30;70379.72;5076328;28;20835;-75
2022/04/07 08:54:25;;;;;;;1.60;0.63;;;;;;;-145.69;89.19;70363.81;5076508;28;20206;-76
2022/04/07 08:56:52;;;;;;;1.13;0.50;;;;;;;-145.69;86.50;70343.94;5076729;28;20203;-76
2022/04/07 08:59:18;;;;;;;1.67;0.70;;;;;;;-145.69;85.75;70369.78;5076680;28;20203;-77
2022/04/07 09:01:45;;;;;;;2.03;0.40;;;;;;;-145.69;90.42;70423.50;5076270;28;20264;-76
2022/04/07 09:04:14;;;;;;;3.10;0.50;;;;;;;-145.69;95.14;70451.34;5062111;28;20210;-77
2022/04/07 09:06:41;;;;;;;1.47;0.40;;;;;;;-145.69;96.49;70471.25;5074546;28;20225;-76
2022/04/07 09:09:14;;;;;;;1.30;0.60;;;;;;;-145.69;98.13;70471.25;5073372;28;20932;-76
2022/04/07 09:11:40;;;;;;;0.93;0.50;;;;;;;-145.69;100.00;70473.22;5075014;28;20203;-75
2022/04/07 09:14:10;;;;;;;1.57;0.80;;;;;;;-145.69;93.46;70449.38;5075547;28;20593;-76
2022/04/07 09:16:37;;;;;;;2.63;0.63;;;;;;;-145.69;97.76;70439.41;5075791;28;20203;-76
2022/04/07 09:19:04;;;;;;;0.73;0.60;;;;;;;-145.69;95.58;70441.41;5075998;28;20202;-76
2022/04/07 09:21:34;;;;;;;1.03;0.50;;;;;;;-145.69;95.16;70357.84;5075661;28;20223;-76
2022/04/07 09:24:05;;;;;;;1.40;0.60;;;;;;;-145.69;90.58;70332.00;5076245;28;20237;-76
2022/04/07 09:26:32;;;;;;;1.70;0.60;;;;;;;-145.69;91.01;70280.28;5075524;28;20195;-76
2022/04/07 09:28:58;;;;;;;2.83;0.50;;;;;;;-145.69;87.35;70272.31;5076104;28;20214;-76
2022/04/07 09:31:25;;;;;;;0.57;0.57;;;;;;;-145.69;87.74;70286.25;5076061;28;20211;-76
2022/04/07 09:33:55;;;;;;;2.97;0.50;;;;;;;-145.69;87.73;70286.25;5075823;28;20203;-76
2022/04/07 09:36:23;;;;;;;0.93;0.50;;;;;;;-145.69;85.46;70306.13;5075845;28;20211;-76
2022/04/07 09:38:52;;;;;;;0.40;0.30;;;;;;;-145.69;87.23;70312.09;5075414;28;20194;-76
2022/04/07 09:41:19;;;;;;;5.17;0.53;;;;;;;-145.69;86.71;70312.09;5075523;28;20230;-76
2022/04/07 09:43:46;;;;;;;1.07;0.50;;;;;;;-145.69;88.33;70288.22;5074748;28;20596;-76
2022/04/07 09:46:14;;;;;;;0.50;0.40;;;;;;;-145.69;84.86;70282.25;5075520;28;20660;-76
2022/04/07 09:48:58;;;;;;;0.57;0.40;;;;;;;-145.69;88.16;70330.00;5074741;28;20937;-75
2022/04/07 09:51:25;;;;;;;0.40;0.40;;;;;;;-145.69;88.04;70361.84;5075529;28;20202;-76
2022/04/07 09:53:55;;;;;;;1.60;0.40;;;;;;;-145.69;87.27;70312.09;5075475;28;20286;-75
2022/04/07 09:56:24;;;;;;;0.50;0.50;;;;;;;-145.69;87.77;70308.13;5075450;28;20199;-76
2022/04/07 09:58:52;;;;;;;1.43;0.57;;;;;;;-145.69;89.07;70288.22;5075165;28;20665;-75
2022/04/07 10:01:18;;;;;;;1.50;0.90;;;;;;;-145.69;85.41;70270.31;5075639;28;20227;-76
2022/04/07 10:03:47;;;;;;;0.57;0.40;;;;;;;-145.69;84.24;70286.25;5075215;28;20608;-75
2022/04/07 10:06:14;;;;;;;0.67;0.50;;;;;;;-145.69;88.27;70302.16;5075151;28;20256;-76
2022/04/07 10:08:42;;;;;;;1.10;0.33;;;;;;;-145.69;94.71;70335.97;5073464;28;20299;-75
2022/04/07 10:11:10;;;;;;;1.93;0.50;;;;;;;-145.69;87.84;70282.25;5056071;28;20200;-75
2022/04/07 10:13:37;;;;;;;5.93;0.80;;;;;;;-145.69;87.82;70282.25;5054701;28;20638;-75
2022/04/07 10:16:05;;;;;;;3.30;1.33;;;;;;;-145.69;87.22;70228.53;5055199;28;20207;-76
2022/04/07 10:18:43;;;;;;;0.50;0.50;;;;;;;-145.69;82.84;70284.25;5054762;28;20443;-76
2022/04/07 10:21:18;;;;;;;0.37;0.37;;;;;;;-145.69;83.87;70276.28;5054965;28;20317;-76
2022/04/07 10:23:52;;;;;;;1.03;0.37;;;;;;;-145.69;83.54;70272.31;5054938;28;20203;-75
2022/04/07 10:26:24;;;;;;;0.93;0.60;;;;;;;-145.69;84.19;70218.59;5054960;28;20186;-75
2022/04/07 10:28:55;;;;;;;0.40;0.40;;;;;;;-145.69;82.35;70206.66;5054967;28;20207;-75
2022/04/07 10:31:22;;;;;;;0.40;0.40;;;;;;;-145.69;81.90;70212.63;5054828;28;20254;-75
2022/04/07 10:33:50;;;;;;;2.53;0.40;;;;;;;-145.69;84.05;70230.53;5054816;28;20558;-76
2022/04/07 10:36:18;;;;;;;0.80;0.30;;;;;;;-145.69;82.57;70228.53;5054676;28;20200;-75
2022/04/07 10:38:47;;;;;;;0.30;0.30;;;;;;;-145.69;84.10;70117.16;5069662;28;20198;-75
2022/04/07 10:41:49;;;;;;;0.20;0.20;;;;;;;-145.69;79.45;70015.69;5075192;28;20237;-75
2022/04/07 10:44:16;;;;;;;1.80;0.30;;;;;;;-145.69;76.66;70003.75;5074580;28;20222;-77
2022/04/07 10:46:43;;;;;;;0.30;0.30;;;;;;;-145.69;75.60;70023.66;5074344;28;20297;-76
2022/04/07 10:49:10;;;;;;;0.63;0.40;;;;;;;-145.69;79.99;70105.22;5074086;28;20286;-76
2022/04/07 10:51:42;;;;;;;1.20;0.40;;;;;;;-145.69;79.46;70113.16;5074341;28;20192;-75
2022/04/07 10:54:09;;;;;;;1.53;0.30;;;;;;;-145.69;80.68;70133.06;5073107;28;20285;-75
2022/04/07 10:56:39;;;;;;;1.37;0.30;;;;;;;-145.69;82.59;70099.25;5074460;28;20204;-76
2022/04/07 10:59:20;;;;;;;1.03;0.50;;;;;;;-145.69;76.77;69987.84;5074101;28;20194;-76
2022/04/07 11:02:02;;;;;;;0.40;0.40;;;;;;;-145.69;78.19;70025.66;5074255;28;20238;-76
2022/04/07 11:05:01;;;;;;;5.33;0.47;;;;;;;-145.69;76.39;69997.78;5074092;28;20199;-77
2022/04/07 11:07:36;;;;;;;5.20;0.27;;;;;;;-145.69;75.62;70045.53;5074131;28;20274;-76
2022/04/07 11:10:11;;;;;;;0.47;0.40;;;;;;;-145.69;74.72;69997.78;5074387;28;20191;-76
2022/04/07 11:12:44;;;;;;;0.50;0.30;;;;;;;-145.69;74.62;69979.91;5074238;28;20205;-76
2022/04/07 11:15:32;;;;;;;0.40;0.40;;;;;;;-145.69;74.58;69962.00;5073777;28;20578;-77
2022/04/07 11:18:15;;;;;;;1.13;0.30;;;;;;;-145.69;73.74;69965.97;5073826;28;20286;-76